sensor_id;sensor_type;location;lat;lon;timestamp;P1;durP1;ratioP1;P2;durP2;ratioP2
80136;SDS011;69466;55.948;37.484;2023-05-10T00:00:27;11.35;;;5.78;;
80136;SDS011;69466;55.948;37.484;2023-05-10T00:02:53;8.63;;;4.90;;
80136;SDS011;69466;55.948;37.484;2023-05-10T00:05:19;10.55;;;5.50;;
80136;SDS011;69466;55.948;37.484;2023-05-10T00:07:45;8.70;;;5.25;;
80136;SDS011;69466;55.948;37.484;2023-05-10T00:10:11;10.40;;;4.93;;
80136;SDS011;69466;55.948;37.484;2023-05-10T00:12:37;10.77;;;4.85;;
80136;SDS011;69466;55.948;37.484;2023-05-10T00:15:03;9.25;;;4.97;;
80136;SDS011;69466;55.948;37.484;2023-05-10T00:17:31;9.98;;;4.38;;
80136;SDS011;69466;55.948;37.484;2023-05-10T00:22:56;10.32;;;4.72;;
80136;SDS011;69466;55.948;37.484;2023-05-10T00:29:00;9.90;;;4.20;;
80136;SDS011;69466;55.948;37.484;2023-05-10T00:31:26;9.60;;;5.15;;
80136;SDS011;69466;55.948;37.484;2023-05-10T00:33:52;8.45;;;4.28;;
80136;SDS011;69466;55.948;37.484;2023-05-10T00:36:21;8.35;;;4.38;;
80136;SDS011;69466;55.948;37.484;2023-05-10T00:38:46;8.23;;;4.78;;
80136;SDS011;69466;55.948;37.484;2023-05-10T00:41:12;10.75;;;4.72;;
80136;SDS011;69466;55.948;37.484;2023-05-10T00:43:39;8.85;;;4.70;;
80136;SDS011;69466;55.948;37.484;2023-05-10T00:46:05;14.45;;;5.68;;
80136;SDS011;69466;55.948;37.484;2023-05-10T00:48:31;10.73;;;4.30;;
80136;SDS011;69466;55.948;37.484;2023-05-10T00:51:15;10.85;;;4.55;;
80136;SDS011;69466;55.948;37.484;2023-05-10T00:53:41;8.27;;;4.95;;
80136;SDS011;69466;55.948;37.484;2023-05-10T00:56:06;11.32;;;5.00;;
80136;SDS011;69466;55.948;37.484;2023-05-10T00:58:33;8.40;;;4.45;;
80136;SDS011;69466;55.948;37.484;2023-05-10T01:00:58;9.82;;;4.97;;
80136;SDS011;69466;55.948;37.484;2023-05-10T01:03:26;9.45;;;4.35;;
80136;SDS011;69466;55.948;37.484;2023-05-10T01:05:53;7.88;;;4.03;;
80136;SDS011;69466;55.948;37.484;2023-05-10T01:08:19;12.32;;;5.85;;
80136;SDS011;69466;55.948;37.484;2023-05-10T01:10:45;10.05;;;5.35;;
80136;SDS011;69466;55.948;37.484;2023-05-10T01:13:16;10.35;;;5.47;;
80136;SDS011;69466;55.948;37.484;2023-05-10T01:15:50;11.07;;;5.10;;
80136;SDS011;69466;55.948;37.484;2023-05-10T01:18:17;13.85;;;6.60;;
80136;SDS011;69466;55.948;37.484;2023-05-10T01:20:48;10.63;;;6.30;;
80136;SDS011;69466;55.948;37.484;2023-05-10T01:23:37;14.35;;;6.63;;
80136;SDS011;69466;55.948;37.484;2023-05-10T01:28:57;9.18;;;5.20;;
80136;SDS011;69466;55.948;37.484;2023-05-10T01:34:42;9.82;;;5.90;;
80136;SDS011;69466;55.948;37.484;2023-05-10T01:37:15;13.23;;;6.15;;
80136;SDS011;69466;55.948;37.484;2023-05-10T01:39:49;9.68;;;4.88;;
80136;SDS011;69466;55.948;37.484;2023-05-10T01:42:23;10.45;;;5.40;;
80136;SDS011;69466;55.948;37.484;2023-05-10T01:44:55;8.25;;;4.50;;
80136;SDS011;69466;55.948;37.484;2023-05-10T01:47:40;10.00;;;5.57;;
80136;SDS011;69466;55.948;37.484;2023-05-10T01:50:09;8.57;;;4.93;;
80136;SDS011;69466;55.948;37.484;2023-05-10T01:52:42;10.15;;;4.97;;
80136;SDS011;69466;55.948;37.484;2023-05-10T01:55:13;10.45;;;5.53;;
80136;SDS011;69466;55.948;37.484;2023-05-10T01:57:42;10.55;;;4.90;;
80136;SDS011;69466;55.948;37.484;2023-05-10T02:00:10;9.63;;;4.88;;
80136;SDS011;69466;55.948;37.484;2023-05-10T02:02:40;10.85;;;5.45;;
80136;SDS011;69466;55.948;37.484;2023-05-10T02:05:11;10.52;;;4.85;;
80136;SDS011;69466;55.948;37.484;2023-05-10T02:07:39;12.25;;;6.07;;
80136;SDS011;69466;55.948;37.484;2023-05-10T02:10:06;10.07;;;5.72;;
80136;SDS011;69466;55.948;37.484;2023-05-10T02:12:40;10.68;;;5.75;;
80136;SDS011;69466;55.948;37.484;2023-05-10T02:15:08;9.45;;;4.90;;
80136;SDS011;69466;55.948;37.484;2023-05-10T02:17:37;11.88;;;4.72;;
80136;SDS011;69466;55.948;37.484;2023-05-10T02:20:04;9.13;;;4.55;;
80136;SDS011;69466;55.948;37.484;2023-05-10T02:22:32;9.40;;;4.90;;
80136;SDS011;69466;55.948;37.484;2023-05-10T02:24:59;8.40;;;5.00;;
80136;SDS011;69466;55.948;37.484;2023-05-10T02:27:29;9.95;;;4.85;;
80136;SDS011;69466;55.948;37.484;2023-05-10T02:29:56;11.10;;;5.40;;
80136;SDS011;69466;55.948;37.484;2023-05-10T02:32:24;10.00;;;6.22;;
80136;SDS011;69466;55.948;37.484;2023-05-10T02:34:52;9.70;;;5.03;;
80136;SDS011;69466;55.948;37.484;2023-05-10T02:37:18;9.02;;;4.75;;
80136;SDS011;69466;55.948;37.484;2023-05-10T02:39:49;9.93;;;4.68;;
80136;SDS011;69466;55.948;37.484;2023-05-10T02:42:18;12.18;;;4.97;;
80136;SDS011;69466;55.948;37.484;2023-05-10T02:44:49;9.25;;;4.68;;
80136;SDS011;69466;55.948;37.484;2023-05-10T02:47:17;10.90;;;4.88;;
80136;SDS011;69466;55.948;37.484;2023-05-10T02:49:44;7.60;;;5.20;;
80136;SDS011;69466;55.948;37.484;2023-05-10T02:52:10;10.35;;;4.65;;
80136;SDS011;69466;55.948;37.484;2023-05-10T02:54:41;8.98;;;4.65;;
80136;SDS011;69466;55.948;37.484;2023-05-10T02:57:11;8.18;;;3.97;;
80136;SDS011;69466;55.948;37.484;2023-05-10T02:59:44;9.95;;;4.90;;
80136;SDS011;69466;55.948;37.484;2023-05-10T03:02:12;7.32;;;4.60;;
80136;SDS011;69466;55.948;37.484;2023-05-10T03:04:41;7.88;;;4.53;;
80136;SDS011;69466;55.948;37.484;2023-05-10T03:07:07;11.90;;;4.18;;
80136;SDS011;69466;55.948;37.484;2023-05-10T03:09:34;7.75;;;3.80;;
80136;SDS011;69466;55.948;37.484;2023-05-10T03:20:38;8.80;;;4.28;;
80136;SDS011;69466;55.948;37.484;2023-05-10T03:23:07;6.65;;;3.70;;
80136;SDS011;69466;55.948;37.484;2023-05-10T03:25:41;7.50;;;4.15;;
80136;SDS011;69466;55.948;37.484;2023-05-10T03:28:10;9.20;;;4.13;;
80136;SDS011;69466;55.948;37.484;2023-05-10T03:30:37;9.23;;;3.80;;
80136;SDS011;69466;55.948;37.484;2023-05-10T03:33:05;8.93;;;4.80;;
80136;SDS011;69466;55.948;37.484;2023-05-10T03:35:33;5.50;;;3.55;;
80136;SDS011;69466;55.948;37.484;2023-05-10T03:37:59;10.15;;;4.50;;
80136;SDS011;69466;55.948;37.484;2023-05-10T03:40:25;7.53;;;4.03;;
80136;SDS011;69466;55.948;37.484;2023-05-10T03:42:54;8.52;;;3.65;;
80136;SDS011;69466;55.948;37.484;2023-05-10T03:45:20;6.32;;;3.42;;
80136;SDS011;69466;55.948;37.484;2023-05-10T03:47:46;10.75;;;3.60;;
80136;SDS011;69466;55.948;37.484;2023-05-10T03:50:12;6.45;;;3.15;;
80136;SDS011;69466;55.948;37.484;2023-05-10T03:52:38;7.43;;;3.55;;
80136;SDS011;69466;55.948;37.484;2023-05-10T03:55:07;7.03;;;3.25;;
80136;SDS011;69466;55.948;37.484;2023-05-10T03:57:33;6.40;;;3.05;;
80136;SDS011;69466;55.948;37.484;2023-05-10T03:59:59;7.35;;;3.10;;
80136;SDS011;69466;55.948;37.484;2023-05-10T04:02:25;8.65;;;3.25;;
80136;SDS011;69466;55.948;37.484;2023-05-10T04:04:52;6.35;;;2.72;;
80136;SDS011;69466;55.948;37.484;2023-05-10T04:07:18;6.13;;;3.35;;
80136;SDS011;69466;55.948;37.484;2023-05-10T04:09:44;7.72;;;3.28;;
80136;SDS011;69466;55.948;37.484;2023-05-10T04:12:12;6.90;;;4.03;;
80136;SDS011;69466;55.948;37.484;2023-05-10T04:14:38;8.38;;;3.40;;
80136;SDS011;69466;55.948;37.484;2023-05-10T04:17:04;5.68;;;2.92;;
80136;SDS011;69466;55.948;37.484;2023-05-10T04:19:31;8.15;;;3.55;;
80136;SDS011;69466;55.948;37.484;2023-05-10T04:21:57;6.85;;;3.55;;
80136;SDS011;69466;55.948;37.484;2023-05-10T04:24:23;6.18;;;3.00;;
80136;SDS011;69466;55.948;37.484;2023-05-10T04:26:49;7.10;;;3.05;;
80136;SDS011;69466;55.948;37.484;2023-05-10T04:29:15;9.80;;;3.28;;
80136;SDS011;69466;55.948;37.484;2023-05-10T04:31:41;7.47;;;3.78;;
80136;SDS011;69466;55.948;37.484;2023-05-10T04:34:07;7.05;;;3.30;;
80136;SDS011;69466;55.948;37.484;2023-05-10T04:36:33;7.10;;;3.28;;
80136;SDS011;69466;55.948;37.484;2023-05-10T04:39:03;6.45;;;2.90;;
80136;SDS011;69466;55.948;37.484;2023-05-10T04:41:29;6.13;;;3.28;;
80136;SDS011;69466;55.948;37.484;2023-05-10T04:43:55;8.10;;;3.08;;
80136;SDS011;69466;55.948;37.484;2023-05-10T04:46:21;6.38;;;3.40;;
80136;SDS011;69466;55.948;37.484;2023-05-10T04:48:47;6.85;;;2.83;;
80136;SDS011;69466;55.948;37.484;2023-05-10T04:51:13;6.70;;;2.88;;
80136;SDS011;69466;55.948;37.484;2023-05-10T04:53:39;6.82;;;2.40;;
80136;SDS011;69466;55.948;37.484;2023-05-10T04:56:05;6.28;;;3.25;;
80136;SDS011;69466;55.948;37.484;2023-05-10T04:58:31;5.88;;;2.75;;
80136;SDS011;69466;55.948;37.484;2023-05-10T05:00:57;8.02;;;3.25;;
80136;SDS011;69466;55.948;37.484;2023-05-10T05:03:22;8.68;;;2.75;;
80136;SDS011;69466;55.948;37.484;2023-05-10T05:05:48;6.15;;;3.25;;
80136;SDS011;69466;55.948;37.484;2023-05-10T05:08:14;6.85;;;2.83;;
80136;SDS011;69466;55.948;37.484;2023-05-10T05:10:40;7.32;;;2.70;;
80136;SDS011;69466;55.948;37.484;2023-05-10T05:13:05;8.82;;;3.40;;
80136;SDS011;69466;55.948;37.484;2023-05-10T05:15:31;5.47;;;2.67;;
80136;SDS011;69466;55.948;37.484;2023-05-10T05:17:57;6.18;;;2.92;;
80136;SDS011;69466;55.948;37.484;2023-05-10T05:20:23;6.50;;;2.45;;
80136;SDS011;69466;55.948;37.484;2023-05-10T05:22:48;8.77;;;3.35;;
80136;SDS011;69466;55.948;37.484;2023-05-10T05:25:14;8.27;;;3.85;;
80136;SDS011;69466;55.948;37.484;2023-05-10T05:27:41;7.85;;;3.28;;
80136;SDS011;69466;55.948;37.484;2023-05-10T05:30:07;13.35;;;3.78;;
80136;SDS011;69466;55.948;37.484;2023-05-10T05:32:33;5.80;;;3.03;;
80136;SDS011;69466;55.948;37.484;2023-05-10T05:34:59;9.13;;;3.20;;
80136;SDS011;69466;55.948;37.484;2023-05-10T05:37:26;9.20;;;3.30;;
80136;SDS011;69466;55.948;37.484;2023-05-10T05:39:51;10.10;;;3.10;;
80136;SDS011;69466;55.948;37.484;2023-05-10T05:42:17;7.68;;;2.83;;
80136;SDS011;69466;55.948;37.484;2023-05-10T05:44:44;7.00;;;2.45;;
80136;SDS011;69466;55.948;37.484;2023-05-10T05:47:10;7.72;;;2.72;;
80136;SDS011;69466;55.948;37.484;2023-05-10T05:49:36;11.82;;;3.58;;
80136;SDS011;69466;55.948;37.484;2023-05-10T05:52:03;8.55;;;2.92;;
80136;SDS011;69466;55.948;37.484;2023-05-10T05:54:30;9.20;;;3.28;;
80136;SDS011;69466;55.948;37.484;2023-05-10T05:56:59;7.20;;;3.00;;
80136;SDS011;69466;55.948;37.484;2023-05-10T05:59:26;9.45;;;3.67;;
80136;SDS011;69466;55.948;37.484;2023-05-10T06:01:52;12.60;;;4.63;;
80136;SDS011;69466;55.948;37.484;2023-05-10T06:04:18;7.38;;;2.75;;
80136;SDS011;69466;55.948;37.484;2023-05-10T06:06:45;7.30;;;2.72;;
80136;SDS011;69466;55.948;37.484;2023-05-10T06:09:11;7.53;;;2.97;;
80136;SDS011;69466;55.948;37.484;2023-05-10T06:11:38;10.45;;;2.63;;
80136;SDS011;69466;55.948;37.484;2023-05-10T06:14:07;5.95;;;2.08;;
80136;SDS011;69466;55.948;37.484;2023-05-10T06:16:42;5.93;;;2.40;;
80136;SDS011;69466;55.948;37.484;2023-05-10T06:19:09;5.13;;;2.50;;
80136;SDS011;69466;55.948;37.484;2023-05-10T06:21:39;6.45;;;3.05;;
80136;SDS011;69466;55.948;37.484;2023-05-10T06:24:06;6.05;;;2.65;;
80136;SDS011;69466;55.948;37.484;2023-05-10T06:26:33;7.43;;;2.22;;
80136;SDS011;69466;55.948;37.484;2023-05-10T06:28:59;6.88;;;2.58;;
80136;SDS011;69466;55.948;37.484;2023-05-10T06:31:24;7.50;;;2.22;;
80136;SDS011;69466;55.948;37.484;2023-05-10T06:33:52;4.25;;;1.98;;
80136;SDS011;69466;55.948;37.484;2023-05-10T06:36:18;5.70;;;2.38;;
80136;SDS011;69466;55.948;37.484;2023-05-10T06:38:45;5.97;;;2.33;;
80136;SDS011;69466;55.948;37.484;2023-05-10T06:41:12;8.48;;;3.92;;
80136;SDS011;69466;55.948;37.484;2023-05-10T06:43:38;7.65;;;2.95;;
80136;SDS011;69466;55.948;37.484;2023-05-10T06:46:06;6.90;;;2.38;;
80136;SDS011;69466;55.948;37.484;2023-05-10T06:48:35;8.13;;;2.83;;
80136;SDS011;69466;55.948;37.484;2023-05-10T06:51:01;5.60;;;2.72;;
80136;SDS011;69466;55.948;37.484;2023-05-10T06:53:27;6.30;;;2.60;;
80136;SDS011;69466;55.948;37.484;2023-05-10T06:55:53;9.82;;;3.45;;
80136;SDS011;69466;55.948;37.484;2023-05-10T06:58:18;5.75;;;2.83;;
80136;SDS011;69466;55.948;37.484;2023-05-10T07:00:44;6.88;;;2.80;;
80136;SDS011;69466;55.948;37.484;2023-05-10T07:03:12;7.75;;;2.50;;
80136;SDS011;69466;55.948;37.484;2023-05-10T07:05:37;5.93;;;2.70;;
80136;SDS011;69466;55.948;37.484;2023-05-10T07:08:03;5.45;;;2.53;;
80136;SDS011;69466;55.948;37.484;2023-05-10T07:10:29;4.68;;;2.40;;
80136;SDS011;69466;55.948;37.484;2023-05-10T07:12:55;4.93;;;2.40;;
80136;SDS011;69466;55.948;37.484;2023-05-10T07:15:20;7.60;;;3.35;;
80136;SDS011;69466;55.948;37.484;2023-05-10T07:17:46;7.45;;;2.50;;
80136;SDS011;69466;55.948;37.484;2023-05-10T07:20:12;4.93;;;2.38;;
80136;SDS011;69466;55.948;37.484;2023-05-10T07:22:38;5.55;;;2.00;;
80136;SDS011;69466;55.948;37.484;2023-05-10T07:25:04;6.65;;;2.13;;
80136;SDS011;69466;55.948;37.484;2023-05-10T07:27:30;5.35;;;2.20;;
80136;SDS011;69466;55.948;37.484;2023-05-10T07:29:56;4.70;;;2.10;;
80136;SDS011;69466;55.948;37.484;2023-05-10T07:32:22;5.85;;;2.13;;
80136;SDS011;69466;55.948;37.484;2023-05-10T07:34:48;7.32;;;2.13;;
80136;SDS011;69466;55.948;37.484;2023-05-10T07:37:14;6.88;;;2.60;;
80136;SDS011;69466;55.948;37.484;2023-05-10T07:39:39;5.78;;;1.70;;
80136;SDS011;69466;55.948;37.484;2023-05-10T07:42:05;5.40;;;2.45;;
80136;SDS011;69466;55.948;37.484;2023-05-10T07:44:31;6.10;;;2.03;;
80136;SDS011;69466;55.948;37.484;2023-05-10T07:46:57;5.90;;;1.95;;
80136;SDS011;69466;55.948;37.484;2023-05-10T07:49:25;4.57;;;1.67;;
80136;SDS011;69466;55.948;37.484;2023-05-10T07:51:51;6.03;;;2.20;;
80136;SDS011;69466;55.948;37.484;2023-05-10T07:54:17;8.32;;;2.65;;
80136;SDS011;69466;55.948;37.484;2023-05-10T07:56:43;5.45;;;1.75;;
80136;SDS011;69466;55.948;37.484;2023-05-10T07:59:16;5.07;;;1.75;;
80136;SDS011;69466;55.948;37.484;2023-05-10T08:01:43;5.13;;;1.60;;
80136;SDS011;69466;55.948;37.484;2023-05-10T08:04:09;4.10;;;1.55;;
80136;SDS011;69466;55.948;37.484;2023-05-10T08:06:35;3.13;;;1.40;;
80136;SDS011;69466;55.948;37.484;2023-05-10T08:09:01;3.63;;;1.45;;
80136;SDS011;69466;55.948;37.484;2023-05-10T08:11:27;5.53;;;1.50;;
80136;SDS011;69466;55.948;37.484;2023-05-10T08:13:53;4.63;;;1.23;;
80136;SDS011;69466;55.948;37.484;2023-05-10T08:16:19;4.15;;;1.40;;
80136;SDS011;69466;55.948;37.484;2023-05-10T08:18:45;4.85;;;1.40;;
80136;SDS011;69466;55.948;37.484;2023-05-10T08:21:13;4.65;;;1.33;;
80136;SDS011;69466;55.948;37.484;2023-05-10T08:23:40;7.18;;;1.80;;
80136;SDS011;69466;55.948;37.484;2023-05-10T08:26:06;4.93;;;1.95;;
80136;SDS011;69466;55.948;37.484;2023-05-10T08:28:32;5.82;;;1.70;;
80136;SDS011;69466;55.948;37.484;2023-05-10T08:30:57;4.22;;;1.30;;
80136;SDS011;69466;55.948;37.484;2023-05-10T08:33:23;3.30;;;1.30;;
80136;SDS011;69466;55.948;37.484;2023-05-10T08:35:49;5.95;;;1.10;;
80136;SDS011;69466;55.948;37.484;2023-05-10T08:38:15;4.63;;;0.98;;
80136;SDS011;69466;55.948;37.484;2023-05-10T08:40:41;3.20;;;0.98;;
80136;SDS011;69466;55.948;37.484;2023-05-10T08:43:09;2.90;;;1.08;;
80136;SDS011;69466;55.948;37.484;2023-05-10T08:45:37;5.22;;;1.23;;
80136;SDS011;69466;55.948;37.484;2023-05-10T08:48:06;3.03;;;1.00;;
80136;SDS011;69466;55.948;37.484;2023-05-10T08:50:40;3.35;;;1.25;;
80136;SDS011;69466;55.948;37.484;2023-05-10T08:53:10;6.03;;;1.40;;
80136;SDS011;69466;55.948;37.484;2023-05-10T08:55:38;4.30;;;1.70;;
80136;SDS011;69466;55.948;37.484;2023-05-10T08:58:07;5.07;;;1.30;;
80136;SDS011;69466;55.948;37.484;2023-05-10T09:00:34;3.08;;;1.17;;
80136;SDS011;69466;55.948;37.484;2023-05-10T09:03:04;4.07;;;1.45;;
80136;SDS011;69466;55.948;37.484;2023-05-10T09:05:31;3.45;;;0.98;;
80136;SDS011;69466;55.948;37.484;2023-05-10T09:07:57;6.43;;;1.60;;
80136;SDS011;69466;55.948;37.484;2023-05-10T09:10:25;6.43;;;2.13;;
80136;SDS011;69466;55.948;37.484;2023-05-10T09:12:53;5.70;;;1.48;;
80136;SDS011;69466;55.948;37.484;2023-05-10T09:15:21;6.03;;;1.40;;
80136;SDS011;69466;55.948;37.484;2023-05-10T09:17:47;5.15;;;1.52;;
80136;SDS011;69466;55.948;37.484;2023-05-10T09:20:14;4.90;;;1.80;;
80136;SDS011;69466;55.948;37.484;2023-05-10T09:22:42;5.18;;;2.50;;
80136;SDS011;69466;55.948;37.484;2023-05-10T09:27:36;10.75;;;1.90;;
80136;SDS011;69466;55.948;37.484;2023-05-10T09:30:05;6.60;;;1.60;;
80136;SDS011;69466;55.948;37.484;2023-05-10T09:32:39;5.05;;;1.67;;
80136;SDS011;69466;55.948;37.484;2023-05-10T09:37:36;4.00;;;1.65;;
80136;SDS011;69466;55.948;37.484;2023-05-10T09:40:05;6.50;;;1.95;;
80136;SDS011;69466;55.948;37.484;2023-05-10T09:42:33;5.60;;;2.03;;
80136;SDS011;69466;55.948;37.484;2023-05-10T09:45:00;8.00;;;1.90;;
80136;SDS011;69466;55.948;37.484;2023-05-10T09:47:33;5.65;;;1.50;;
80136;SDS011;69466;55.948;37.484;2023-05-10T09:49:59;7.43;;;2.03;;
80136;SDS011;69466;55.948;37.484;2023-05-10T09:52:30;4.35;;;1.92;;
80136;SDS011;69466;55.948;37.484;2023-05-10T09:54:56;5.80;;;1.80;;
80136;SDS011;69466;55.948;37.484;2023-05-10T09:57:23;4.72;;;1.50;;
80136;SDS011;69466;55.948;37.484;2023-05-10T09:59:50;4.75;;;1.73;;
80136;SDS011;69466;55.948;37.484;2023-05-10T10:02:17;6.28;;;1.77;;
80136;SDS011;69466;55.948;37.484;2023-05-10T10:04:43;5.78;;;1.60;;
80136;SDS011;69466;55.948;37.484;2023-05-10T10:07:08;7.22;;;2.50;;
80136;SDS011;69466;55.948;37.484;2023-05-10T10:09:35;5.03;;;1.70;;
80136;SDS011;69466;55.948;37.484;2023-05-10T10:12:01;5.18;;;1.85;;
80136;SDS011;69466;55.948;37.484;2023-05-10T10:14:30;4.45;;;1.50;;
80136;SDS011;69466;55.948;37.484;2023-05-10T10:16:56;5.15;;;1.63;;
80136;SDS011;69466;55.948;37.484;2023-05-10T10:19:22;4.05;;;1.90;;
80136;SDS011;69466;55.948;37.484;2023-05-10T10:21:49;4.60;;;2.10;;
80136;SDS011;69466;55.948;37.484;2023-05-10T10:24:15;5.95;;;1.80;;
80136;SDS011;69466;55.948;37.484;2023-05-10T10:26:41;4.18;;;1.50;;
80136;SDS011;69466;55.948;37.484;2023-05-10T10:31:41;4.53;;;1.50;;
80136;SDS011;69466;55.948;37.484;2023-05-10T10:34:25;3.28;;;1.63;;
80136;SDS011;69466;55.948;37.484;2023-05-10T10:36:55;3.85;;;1.70;;
80136;SDS011;69466;55.948;37.484;2023-05-10T10:39:23;4.40;;;1.33;;
80136;SDS011;69466;55.948;37.484;2023-05-10T10:41:53;4.05;;;1.40;;
80136;SDS011;69466;55.948;37.484;2023-05-10T10:47:03;3.70;;;1.45;;
80136;SDS011;69466;55.948;37.484;2023-05-10T10:54:59;3.42;;;1.35;;
80136;SDS011;69466;55.948;37.484;2023-05-10T10:57:35;3.00;;;1.38;;
80136;SDS011;69466;55.948;37.484;2023-05-10T11:00:27;7.68;;;2.58;;
80136;SDS011;69466;55.948;37.484;2023-05-10T11:03:12;3.83;;;1.30;;
80136;SDS011;69466;55.948;37.484;2023-05-10T11:05:43;4.43;;;1.33;;
80136;SDS011;69466;55.948;37.484;2023-05-10T11:10:40;4.90;;;1.33;;
80136;SDS011;69466;55.948;37.484;2023-05-10T11:13:21;4.00;;;1.40;;
80136;SDS011;69466;55.948;37.484;2023-05-10T11:15:55;3.63;;;1.15;;
80136;SDS011;69466;55.948;37.484;2023-05-10T11:18:29;3.38;;;1.25;;
80136;SDS011;69466;55.948;37.484;2023-05-10T11:20:56;5.20;;;2.40;;
80136;SDS011;69466;55.948;37.484;2023-05-10T11:23:47;4.00;;;1.63;;
80136;SDS011;69466;55.948;37.484;2023-05-10T11:26:12;3.03;;;1.27;;
80136;SDS011;69466;55.948;37.484;2023-05-10T11:28:41;4.32;;;1.38;;
80136;SDS011;69466;55.948;37.484;2023-05-10T11:31:13;4.55;;;1.50;;
80136;SDS011;69466;55.948;37.484;2023-05-10T11:33:44;4.35;;;1.65;;
80136;SDS011;69466;55.948;37.484;2023-05-10T11:36:14;3.42;;;1.40;;
80136;SDS011;69466;55.948;37.484;2023-05-10T11:38:42;3.20;;;1.48;;
80136;SDS011;69466;55.948;37.484;2023-05-10T11:41:09;4.10;;;1.48;;
80136;SDS011;69466;55.948;37.484;2023-05-10T11:43:38;4.50;;;1.58;;
80136;SDS011;69466;55.948;37.484;2023-05-10T11:46:06;6.43;;;1.70;;
80136;SDS011;69466;55.948;37.484;2023-05-10T11:48:33;6.45;;;1.77;;
80136;SDS011;69466;55.948;37.484;2023-05-10T11:51:00;6.57;;;1.70;;
80136;SDS011;69466;55.948;37.484;2023-05-10T11:53:27;5.25;;;1.80;;
80136;SDS011;69466;55.948;37.484;2023-05-10T11:55:55;4.63;;;1.92;;
80136;SDS011;69466;55.948;37.484;2023-05-10T11:58:27;5.28;;;1.98;;
80136;SDS011;69466;55.948;37.484;2023-05-10T12:00:53;5.38;;;1.63;;
80136;SDS011;69466;55.948;37.484;2023-05-10T12:03:19;4.82;;;1.80;;
80136;SDS011;69466;55.948;37.484;2023-05-10T12:05:46;5.18;;;1.63;;
80136;SDS011;69466;55.948;37.484;2023-05-10T12:08:13;4.47;;;1.70;;
80136;SDS011;69466;55.948;37.484;2023-05-10T12:10:40;3.95;;;1.85;;
80136;SDS011;69466;55.948;37.484;2023-05-10T12:13:10;7.28;;;2.63;;
80136;SDS011;69466;55.948;37.484;2023-05-10T12:15:37;6.15;;;2.95;;
80136;SDS011;69466;55.948;37.484;2023-05-10T12:18:03;13.18;;;4.80;;
80136;SDS011;69466;55.948;37.484;2023-05-10T12:20:30;11.25;;;6.00;;
80136;SDS011;69466;55.948;37.484;2023-05-10T12:22:58;12.55;;;3.38;;
80136;SDS011;69466;55.948;37.484;2023-05-10T12:25:24;9.82;;;2.92;;
80136;SDS011;69466;55.948;37.484;2023-05-10T12:27:57;7.60;;;3.75;;
80136;SDS011;69466;55.948;37.484;2023-05-10T12:30:26;18.70;;;4.05;;
80136;SDS011;69466;55.948;37.484;2023-05-10T12:32:54;9.23;;;2.53;;
80136;SDS011;69466;55.948;37.484;2023-05-10T12:35:25;6.78;;;2.38;;
80136;SDS011;69466;55.948;37.484;2023-05-10T12:37:51;5.47;;;1.98;;
80136;SDS011;69466;55.948;37.484;2023-05-10T12:40:17;4.95;;;2.00;;
80136;SDS011;69466;55.948;37.484;2023-05-10T12:42:43;7.78;;;3.35;;
80136;SDS011;69466;55.948;37.484;2023-05-10T12:45:11;5.88;;;2.60;;
80136;SDS011;69466;55.948;37.484;2023-05-10T12:47:38;5.22;;;2.28;;
80136;SDS011;69466;55.948;37.484;2023-05-10T12:50:07;5.95;;;2.33;;
80136;SDS011;69466;55.948;37.484;2023-05-10T12:52:34;7.47;;;2.80;;
80136;SDS011;69466;55.948;37.484;2023-05-10T12:55:01;4.50;;;2.47;;
80136;SDS011;69466;55.948;37.484;2023-05-10T12:57:29;8.70;;;2.15;;
80136;SDS011;69466;55.948;37.484;2023-05-10T12:59:56;7.18;;;2.00;;
80136;SDS011;69466;55.948;37.484;2023-05-10T13:02:22;3.60;;;1.88;;
80136;SDS011;69466;55.948;37.484;2023-05-10T13:04:48;5.45;;;1.88;;
80136;SDS011;69466;55.948;37.484;2023-05-10T13:07:14;5.90;;;2.25;;
80136;SDS011;69466;55.948;37.484;2023-05-10T13:09:40;3.90;;;1.92;;
80136;SDS011;69466;55.948;37.484;2023-05-10T13:12:06;6.32;;;2.53;;
80136;SDS011;69466;55.948;37.484;2023-05-10T13:14:32;5.50;;;2.28;;
80136;SDS011;69466;55.948;37.484;2023-05-10T13:16:57;7.75;;;2.40;;
80136;SDS011;69466;55.948;37.484;2023-05-10T13:19:23;9.23;;;2.67;;
80136;SDS011;69466;55.948;37.484;2023-05-10T13:21:51;5.15;;;2.08;;
80136;SDS011;69466;55.948;37.484;2023-05-10T13:24:17;5.40;;;2.00;;
80136;SDS011;69466;55.948;37.484;2023-05-10T13:26:47;3.97;;;2.03;;
80136;SDS011;69466;55.948;37.484;2023-05-10T13:29:13;6.50;;;1.63;;
80136;SDS011;69466;55.948;37.484;2023-05-10T13:31:42;5.32;;;1.92;;
80136;SDS011;69466;55.948;37.484;2023-05-10T13:34:08;8.85;;;3.47;;
80136;SDS011;69466;55.948;37.484;2023-05-10T13:36:34;21.50;;;4.47;;
80136;SDS011;69466;55.948;37.484;2023-05-10T13:39:00;18.33;;;3.53;;
80136;SDS011;69466;55.948;37.484;2023-05-10T13:41:28;13.40;;;2.65;;
80136;SDS011;69466;55.948;37.484;2023-05-10T13:43:53;11.77;;;3.13;;
80136;SDS011;69466;55.948;37.484;2023-05-10T13:46:24;7.43;;;3.03;;
80136;SDS011;69466;55.948;37.484;2023-05-10T13:48:51;6.35;;;2.58;;
80136;SDS011;69466;55.948;37.484;2023-05-10T13:51:18;5.38;;;2.30;;
80136;SDS011;69466;55.948;37.484;2023-05-10T13:53:47;5.03;;;2.10;;
80136;SDS011;69466;55.948;37.484;2023-05-10T13:56:16;4.63;;;1.95;;
80136;SDS011;69466;55.948;37.484;2023-05-10T13:58:41;8.30;;;2.50;;
80136;SDS011;69466;55.948;37.484;2023-05-10T14:01:07;7.93;;;2.30;;
80136;SDS011;69466;55.948;37.484;2023-05-10T14:03:34;12.93;;;3.55;;
80136;SDS011;69466;55.948;37.484;2023-05-10T14:06:00;6.80;;;2.20;;
80136;SDS011;69466;55.948;37.484;2023-05-10T14:08:26;6.30;;;2.45;;
80136;SDS011;69466;55.948;37.484;2023-05-10T14:10:52;11.43;;;3.33;;
80136;SDS011;69466;55.948;37.484;2023-05-10T14:13:18;20.48;;;4.45;;
80136;SDS011;69466;55.948;37.484;2023-05-10T14:15:45;9.88;;;3.42;;
80136;SDS011;69466;55.948;37.484;2023-05-10T14:18:11;9.35;;;3.42;;
80136;SDS011;69466;55.948;37.484;2023-05-10T14:20:40;7.97;;;3.40;;
80136;SDS011;69466;55.948;37.484;2023-05-10T14:23:10;10.43;;;3.28;;
80136;SDS011;69466;55.948;37.484;2023-05-10T14:25:40;22.48;;;5.97;;
80136;SDS011;69466;55.948;37.484;2023-05-10T14:28:06;9.77;;;3.65;;
80136;SDS011;69466;55.948;37.484;2023-05-10T14:30:33;7.30;;;2.90;;
80136;SDS011;69466;55.948;37.484;2023-05-10T14:33:02;6.78;;;2.72;;
80136;SDS011;69466;55.948;37.484;2023-05-10T14:35:33;12.23;;;2.97;;
80136;SDS011;69466;55.948;37.484;2023-05-10T14:37:59;13.98;;;3.58;;
80136;SDS011;69466;55.948;37.484;2023-05-10T14:40:25;6.85;;;2.13;;
80136;SDS011;69466;55.948;37.484;2023-05-10T14:42:51;11.98;;;2.45;;
80136;SDS011;69466;55.948;37.484;2023-05-10T14:45:19;10.65;;;3.53;;
80136;SDS011;69466;55.948;37.484;2023-05-10T14:47:46;9.85;;;3.97;;
80136;SDS011;69466;55.948;37.484;2023-05-10T14:50:16;11.50;;;4.07;;
80136;SDS011;69466;55.948;37.484;2023-05-10T14:52:43;21.48;;;5.30;;
80136;SDS011;69466;55.948;37.484;2023-05-10T14:55:09;10.75;;;3.75;;
80136;SDS011;69466;55.948;37.484;2023-05-10T14:57:35;12.38;;;3.80;;
80136;SDS011;69466;55.948;37.484;2023-05-10T15:00:02;8.23;;;3.58;;
80136;SDS011;69466;55.948;37.484;2023-05-10T15:02:33;3.63;;;1.67;;
80136;SDS011;69466;55.948;37.484;2023-05-10T15:05:02;6.72;;;1.92;;
80136;SDS011;69466;55.948;37.484;2023-05-10T15:07:29;6.15;;;1.90;;
80136;SDS011;69466;55.948;37.484;2023-05-10T15:09:56;4.38;;;1.90;;
80136;SDS011;69466;55.948;37.484;2023-05-10T15:12:24;3.85;;;1.73;;
80136;SDS011;69466;55.948;37.484;2023-05-10T15:14:50;8.43;;;1.90;;